Time;durP1;ratioP1;P1;durP2;ratioP2;P2;SDS_P1;SDS_P2;PMS_P1;PMS_P2;Temp;Humidity;BMP_temperature;BMP_pressure;BME280_temperature;BME280_humidity;BME280_pressure;Samples;Min_cycle;Max_cycle;Signal;HPM_P1;HPM_P2
2021/07/22 00:01:00;;;;;;;10.55;8.13;;;;;;;;;;5073995;28;20232;-61
2021/07/22 00:03:29;;;;;;;11.05;8.32;;;;;;;;;;5073635;28;20603;-61
2021/07/22 00:05:57;;;;;;;8.77;7.88;;;;;;;;;;5073869;28;20205;-60
2021/07/22 00:08:27;;;;;;;11.45;8.27;;;;;;;;;;5073376;28;20645;-61
2021/07/22 00:10:55;;;;;;;10.95;8.27;;;;;;;;;;5073617;28;20207;-61
2021/07/22 00:13:23;;;;;;;11.15;8.68;;;;;;;;;;5073562;28;20555;-60
2021/07/22 00:15:51;;;;;;;9.10;8.02;;;;;;;;;;5072599;28;20205;-61
2021/07/22 00:18:19;;;;;;;10.82;7.88;;;;;;;;;;5073541;28;20287;-60
2021/07/22 00:20:48;;;;;;;9.63;7.60;;;;;;;;;;5073110;28;20207;-60
2021/07/22 00:23:16;;;;;;;10.10;8.35;;;;;;;;;;5073113;28;20197;-62
2021/07/22 00:25:45;;;;;;;11.00;8.20;;;;;;;;;;5073097;28;20196;-60
2021/07/22 00:28:14;;;;;;;9.05;7.63;;;;;;;;;;5073412;28;20227;-59
2021/07/22 00:30:42;;;;;;;10.93;8.60;;;;;;;;;;5073292;28;20201;-61
2021/07/22 00:33:11;;;;;;;10.02;7.93;;;;;;;;;;5073034;28;20255;-61
2021/07/22 00:35:39;;;;;;;10.20;8.35;;;;;;;;;;5072817;28;20669;-61
2021/07/22 00:38:07;;;;;;;8.88;7.97;;;;;;;;;;5073131;28;20206;-60
2021/07/22 00:40:35;;;;;;;12.00;8.80;;;;;;;;;;5072737;28;20201;-61
2021/07/22 00:43:05;;;;;;;11.63;8.70;;;;;;;;;;5073008;28;20222;-62
2021/07/22 00:45:33;;;;;;;12.60;8.48;;;;;;;;;;5072857;28;20295;-61
2021/07/22 00:48:02;;;;;;;9.70;8.70;;;;;;;;;;5073579;28;20243;-60
2021/07/22 00:50:30;;;;;;;10.95;8.55;;;;;;;;;;5073089;28;20804;-60
2021/07/22 00:52:58;;;;;;;10.18;7.88;;;;;;;;;;5072329;28;20208;-61
2021/07/22 00:55:28;;;;;;;10.88;8.50;;;;;;;;;;5072095;28;20203;-61
2021/07/22 00:57:56;;;;;;;10.60;8.63;;;;;;;;;;5072650;28;20613;-60
2021/07/22 01:00:26;;;;;;;11.75;8.50;;;;;;;;;;5072823;28;20200;-62
2021/07/22 01:02:54;;;;;;;10.27;8.30;;;;;;;;;;5072745;28;20189;-61
2021/07/22 01:05:23;;;;;;;11.10;8.38;;;;;;;;;;5072779;28;20292;-61
2021/07/22 01:07:51;;;;;;;12.07;8.90;;;;;;;;;;5072714;28;20206;-60
2021/07/22 01:10:19;;;;;;;11.25;9.15;;;;;;;;;;5072412;28;20204;-61
2021/07/22 01:12:47;;;;;;;11.23;9.05;;;;;;;;;;5072053;28;20315;-60
2021/07/22 01:15:15;;;;;;;8.85;7.88;;;;;;;;;;5072468;28;20197;-62
2021/07/22 01:17:46;;;;;;;10.07;8.35;;;;;;;;;;5072167;28;20205;-60
2021/07/22 01:20:16;;;;;;;10.63;8.18;;;;;;;;;;5072003;28;20208;-60
2021/07/22 01:22:44;;;;;;;15.40;8.07;;;;;;;;;;5072549;28;20196;-61
2021/07/22 01:25:13;;;;;;;9.45;7.72;;;;;;;;;;5072226;28;20207;-60
2021/07/22 01:27:42;;;;;;;10.10;7.82;;;;;;;;;;5072359;28;20273;-61
2021/07/22 01:30:11;;;;;;;10.38;8.05;;;;;;;;;;5072008;28;20568;-61
2021/07/22 01:32:39;;;;;;;10.30;8.70;;;;;;;;;;5072088;28;20219;-60
2021/07/22 01:35:08;;;;;;;10.05;7.95;;;;;;;;;;5072244;28;20210;-59
2021/07/22 01:37:38;;;;;;;11.70;8.15;;;;;;;;;;5072384;28;20204;-60
2021/07/22 01:40:07;;;;;;;9.68;7.90;;;;;;;;;;5072009;28;20224;-61
2021/07/22 01:42:36;;;;;;;10.15;9.07;;;;;;;;;;5071821;28;20318;-61
2021/07/22 01:45:04;;;;;;;12.07;8.50;;;;;;;;;;5072058;28;20203;-61
2021/07/22 01:47:34;;;;;;;9.30;7.47;;;;;;;;;;5071852;28;20342;-60
2021/07/22 01:50:02;;;;;;;8.82;7.40;;;;;;;;;;5072098;28;20303;-62
2021/07/22 01:52:30;;;;;;;14.05;8.20;;;;;;;;;;5071665;28;20268;-60
2021/07/22 01:54:59;;;;;;;10.13;7.05;;;;;;;;;;5071742;28;20246;-62
2021/07/22 01:57:28;;;;;;;10.45;7.85;;;;;;;;;;5071889;28;20227;-60
2021/07/22 02:00:04;;;;;;;9.27;8.05;;;;;;;;;;5071905;28;20201;-61
2021/07/22 02:02:32;;;;;;;10.38;8.07;;;;;;;;;;5071913;28;20195;-60
2021/07/22 02:05:01;;;;;;;11.43;8.85;;;;;;;;;;5071936;28;20291;-61
2021/07/22 02:07:29;;;;;;;15.25;9.10;;;;;;;;;;5071636;28;20205;-60
2021/07/22 02:09:57;;;;;;;11.35;8.70;;;;;;;;;;5071723;28;20211;-60
2021/07/22 02:12:26;;;;;;;11.63;8.25;;;;;;;;;;5071568;28;20657;-61
2021/07/22 02:14:55;;;;;;;15.00;8.77;;;;;;;;;;5071706;28;20652;-60
2021/07/22 02:17:23;;;;;;;13.18;8.48;;;;;;;;;;5071665;28;20196;-60
2021/07/22 02:19:51;;;;;;;13.10;8.27;;;;;;;;;;5071458;28;20323;-61
2021/07/22 02:22:19;;;;;;;12.13;8.27;;;;;;;;;;5071739;28;20207;-61
2021/07/22 02:24:47;;;;;;;11.38;8.10;;;;;;;;;;5071275;28;20590;-62
2021/07/22 02:27:15;;;;;;;9.48;7.13;;;;;;;;;;5071658;28;20209;-60
2021/07/22 02:29:45;;;;;;;10.13;7.65;;;;;;;;;;5071699;28;20205;-60
2021/07/22 02:32:14;;;;;;;9.73;7.32;;;;;;;;;;5071643;28;20886;-61
2021/07/22 02:34:42;;;;;;;10.90;7.78;;;;;;;;;;5071179;28;20584;-61
2021/07/22 02:37:10;;;;;;;11.73;7.80;;;;;;;;;;5071615;28;20203;-60
2021/07/22 02:39:38;;;;;;;10.98;7.75;;;;;;;;;;5064802;28;20208;-61
2021/07/22 02:42:07;;;;;;;9.85;7.50;;;;;;;;;;5055210;28;20208;-60
2021/07/22 02:44:38;;;;;;;11.93;7.60;;;;;;;;;;5055167;28;20658;-60
2021/07/22 02:47:11;;;;;;;11.98;7.57;;;;;;;;;;5055327;28;20192;-60
2021/07/22 02:49:40;;;;;;;14.70;7.55;;;;;;;;;;5055073;28;20657;-61
2021/07/22 02:52:09;;;;;;;15.23;7.85;;;;;;;;;;5054715;28;20614;-60
2021/07/22 02:54:37;;;;;;;12.23;7.30;;;;;;;;;;5054869;28;20304;-60
2021/07/22 02:57:05;;;;;;;12.95;7.82;;;;;;;;;;5054176;28;20229;-60
2021/07/22 02:59:33;;;;;;;12.15;7.72;;;;;;;;;;5055002;28;20201;-61
2021/07/22 03:02:01;;;;;;;14.02;7.25;;;;;;;;;;5054920;28;20219;-60
2021/07/22 03:04:31;;;;;;;17.30;7.85;;;;;;;;;;5054904;28;20205;-61
2021/07/22 03:07:00;;;;;;;13.52;7.05;;;;;;;;;;5054862;28;20208;-61
2021/07/22 03:09:28;;;;;;;14.35;7.55;;;;;;;;;;5054667;28;20292;-61
2021/07/22 03:11:56;;;;;;;13.23;7.55;;;;;;;;;;5054638;28;20293;-62
2021/07/22 03:14:24;;;;;;;14.95;8.15;;;;;;;;;;5054580;28;20235;-60
2021/07/22 03:16:52;;;;;;;11.40;7.35;;;;;;;;;;5054688;28;20327;-61
2021/07/22 03:19:21;;;;;;;14.32;8.23;;;;;;;;;;5054681;28;20263;-60
2021/07/22 03:21:51;;;;;;;14.75;7.78;;;;;;;;;;5054671;28;20198;-59
2021/07/22 03:24:19;;;;;;;9.73;7.50;;;;;;;;;;5054492;28;20221;-59
2021/07/22 03:26:47;;;;;;;8.98;7.13;;;;;;;;;;5054450;28;20259;-60
2021/07/22 03:29:16;;;;;;;11.23;7.35;;;;;;;;;;5056019;28;20228;-60
2021/07/22 03:31:44;;;;;;;11.57;6.95;;;;;;;;;;5060819;28;20261;-61
2021/07/22 03:34:13;;;;;;;11.88;8.13;;;;;;;;;;5060101;28;20245;-61
2021/07/22 03:36:44;;;;;;;12.20;8.35;;;;;;;;;;5056702;28;20259;-60
2021/07/22 03:39:13;;;;;;;12.23;7.85;;;;;;;;;;5061251;28;20201;-60
2021/07/22 03:41:47;;;;;;;12.57;7.65;;;;;;;;;;5074077;28;20203;-60
2021/07/22 03:44:15;;;;;;;16.17;9.18;;;;;;;;;;5074171;28;20204;-60
2021/07/22 03:46:44;;;;;;;10.35;7.70;;;;;;;;;;5074026;28;20291;-60
2021/07/22 03:49:12;;;;;;;11.55;7.78;;;;;;;;;;5073629;28;20211;-61
2021/07/22 03:51:40;;;;;;;12.48;8.13;;;;;;;;;;5073590;28;20327;-60
2021/07/22 03:54:08;;;;;;;12.15;7.50;;;;;;;;;;5073866;28;20248;-61
2021/07/22 03:56:38;;;;;;;11.05;7.63;;;;;;;;;;5073845;28;20289;-60
2021/07/22 03:59:06;;;;;;;12.05;7.35;;;;;;;;;;5073887;28;20308;-60
2021/07/22 04:01:35;;;;;;;13.15;7.15;;;;;;;;;;5073418;28;20679;-61
2021/07/22 04:04:03;;;;;;;14.00;8.15;;;;;;;;;;5073751;28;20197;-61
2021/07/22 04:06:35;;;;;;;9.85;7.18;;;;;;;;;;5073684;28;20295;-61
2021/07/22 04:09:03;;;;;;;11.93;8.27;;;;;;;;;;5073502;28;20289;-62
2021/07/22 04:11:31;;;;;;;12.85;7.85;;;;;;;;;;5073291;28;20243;-60
2021/07/22 04:14:00;;;;;;;10.68;8.30;;;;;;;;;;5073184;28;20261;-61
2021/07/22 04:16:29;;;;;;;11.40;7.50;;;;;;;;;;5073484;28;20575;-60
2021/07/22 04:18:57;;;;;;;11.45;7.40;;;;;;;;;;5073382;28;20197;-61
2021/07/22 04:21:25;;;;;;;11.07;7.97;;;;;;;;;;5073468;28;20205;-61
2021/07/22 04:23:53;;;;;;;12.93;7.45;;;;;;;;;;5073937;28;20565;-60
2021/07/22 04:26:21;;;;;;;12.55;7.53;;;;;;;;;;5073516;28;20549;-61
2021/07/22 04:28:51;;;;;;;12.07;7.97;;;;;;;;;;5073852;28;20197;-61
2021/07/22 04:31:21;;;;;;;10.60;7.72;;;;;;;;;;5073748;28;20181;-60
2021/07/22 04:33:49;;;;;;;11.35;7.28;;;;;;;;;;5073444;28;20238;-60
2021/07/22 04:36:17;;;;;;;12.90;8.10;;;;;;;;;;5073197;28;20697;-60
2021/07/22 04:38:46;;;;;;;10.80;8.32;;;;;;;;;;5070189;28;20205;-60
2021/07/22 04:41:14;;;;;;;14.18;8.40;;;;;;;;;;5053230;28;20201;-61
2021/07/22 04:43:42;;;;;;;11.70;8.50;;;;;;;;;;5053520;28;20227;-61
2021/07/22 04:46:10;;;;;;;12.93;8.50;;;;;;;;;;5053499;28;20205;-60
2021/07/22 04:48:40;;;;;;;10.98;7.47;;;;;;;;;;5053469;28;20336;-60
2021/07/22 04:51:08;;;;;;;10.60;8.35;;;;;;;;;;5053165;28;20229;-61
2021/07/22 04:53:41;;;;;;;12.13;8.30;;;;;;;;;;5053291;28;20212;-60
2021/07/22 04:56:09;;;;;;;14.27;8.70;;;;;;;;;;5052829;28;20710;-61
2021/07/22 04:58:37;;;;;;;12.35;7.97;;;;;;;;;;5053018;28;20666;-60
2021/07/22 05:01:05;;;;;;;17.08;8.32;;;;;;;;;;5052375;28;20292;-61
2021/07/22 05:03:34;;;;;;;13.77;8.77;;;;;;;;;;5053136;28;20312;-61
2021/07/22 05:06:04;;;;;;;10.13;8.20;;;;;;;;;;5052912;28;20225;-60
2021/07/22 05:08:32;;;;;;;13.05;9.32;;;;;;;;;;5052667;28;20216;-61
2021/07/22 05:11:00;;;;;;;10.43;8.07;;;;;;;;;;5052623;28;20560;-61
2021/07/22 05:13:28;;;;;;;10.63;8.38;;;;;;;;;;5053030;28;20212;-61
2021/07/22 05:15:56;;;;;;;11.65;8.90;;;;;;;;;;5052834;28;20217;-59
2021/07/22 05:18:25;;;;;;;15.15;8.52;;;;;;;;;;5065457;28;20205;-60
2021/07/22 05:20:53;;;;;;;10.52;7.97;;;;;;;;;;5072747;28;20568;-61
2021/07/22 05:23:22;;;;;;;10.57;8.50;;;;;;;;;;5072912;28;20200;-61
2021/07/22 05:25:50;;;;;;;15.98;9.50;;;;;;;;;;5072342;28;20200;-60
2021/07/22 05:28:18;;;;;;;9.98;8.38;;;;;;;;;;5072946;28;20200;-60
2021/07/22 05:30:47;;;;;;;12.40;8.35;;;;;;;;;;5072836;28;20204;-62
2021/07/22 05:33:15;;;;;;;12.65;8.05;;;;;;;;;;5072639;28;20690;-61
2021/07/22 05:35:43;;;;;;;14.52;9.35;;;;;;;;;;5072610;28;20220;-61
2021/07/22 05:38:11;;;;;;;12.13;8.57;;;;;;;;;;5072787;28;20682;-59
2021/07/22 05:40:40;;;;;;;13.30;8.95;;;;;;;;;;5071808;28;20574;-60
2021/07/22 05:43:08;;;;;;;10.07;8.73;;;;;;;;;;5072111;28;20600;-62
2021/07/22 05:45:37;;;;;;;12.73;8.57;;;;;;;;;;5072048;28;20188;-61
2021/07/22 05:48:05;;;;;;;13.13;9.35;;;;;;;;;;5071947;28;20603;-60
2021/07/22 05:50:33;;;;;;;10.75;9.02;;;;;;;;;;5071357;28;20664;-61
2021/07/22 05:53:01;;;;;;;13.27;9.55;;;;;;;;;;5071584;28;20621;-61
2021/07/22 05:55:29;;;;;;;12.82;9.13;;;;;;;;;;5071624;28;20221;-60
2021/07/22 05:57:59;;;;;;;16.13;9.32;;;;;;;;;;5072056;28;20201;-61
2021/07/22 06:00:27;;;;;;;14.77;9.10;;;;;;;;;;5071890;28;20200;-60
2021/07/22 06:02:55;;;;;;;13.43;9.27;;;;;;;;;;5071985;28;20747;-60
2021/07/22 06:05:23;;;;;;;12.25;8.55;;;;;;;;;;5071622;28;20193;-60
2021/07/22 06:07:51;;;;;;;14.55;8.77;;;;;;;;;;5071503;28;20201;-61
2021/07/22 06:10:20;;;;;;;10.38;8.25;;;;;;;;;;5071400;28;20219;-60
2021/07/22 06:12:48;;;;;;;11.13;8.43;;;;;;;;;;5072625;28;20197;-62
2021/07/22 06:15:18;;;;;;;10.77;8.15;;;;;;;;;;5075409;28;20212;-61
2021/07/22 06:17:46;;;;;;;9.55;8.38;;;;;;;;;;5075520;28;20207;-60
2021/07/22 06:20:14;;;;;;;12.65;8.50;;;;;;;;;;5075452;28;20597;-60
2021/07/22 06:22:44;;;;;;;11.68;8.57;;;;;;;;;;5075736;28;20200;-63
2021/07/22 06:25:13;;;;;;;11.75;7.30;;;;;;;;;;5075189;28;20204;-61
2021/07/22 06:27:42;;;;;;;16.05;8.32;;;;;;;;;;5075450;28;20196;-60
2021/07/22 06:30:11;;;;;;;13.43;8.05;;;;;;;;;;5075505;28;20227;-61
2021/07/22 06:32:40;;;;;;;15.90;8.35;;;;;;;;;;5075399;28;20200;-60
2021/07/22 06:35:09;;;;;;;13.20;8.30;;;;;;;;;;5075320;28;20230;-60
2021/07/22 06:37:44;;;;;;;11.27;8.27;;;;;;;;;;5075367;28;20207;-61
2021/07/22 06:40:12;;;;;;;13.32;7.53;;;;;;;;;;5060295;28;20209;-60
2021/07/22 06:42:41;;;;;;;10.40;7.78;;;;;;;;;;5055182;28;20287;-60
2021/07/22 06:45:09;;;;;;;11.13;7.97;;;;;;;;;;5055399;28;20205;-60
2021/07/22 06:47:42;;;;;;;11.38;8.82;;;;;;;;;;5055431;28;20201;-61
2021/07/22 06:50:10;;;;;;;9.88;7.78;;;;;;;;;;5055289;28;20210;-61
2021/07/22 06:52:39;;;;;;;12.77;8.88;;;;;;;;;;5054945;28;20618;-60
2021/07/22 06:55:07;;;;;;;15.02;8.65;;;;;;;;;;5054830;28;20291;-62
2021/07/22 06:57:36;;;;;;;13.80;8.18;;;;;;;;;;5054886;28;20225;-61
2021/07/22 07:00:04;;;;;;;11.45;7.80;;;;;;;;;;5055095;28;20204;-61
2021/07/22 07:02:32;;;;;;;9.63;7.38;;;;;;;;;;5055037;28;20197;-61
2021/07/22 07:05:02;;;;;;;13.85;8.32;;;;;;;;;;5055013;28;20278;-61
2021/07/22 07:07:30;;;;;;;11.52;7.47;;;;;;;;;;5054900;28;20194;-61
2021/07/22 07:09:58;;;;;;;12.00;8.05;;;;;;;;;;5054554;28;20208;-62
2021/07/22 07:12:26;;;;;;;8.85;7.82;;;;;;;;;;5054744;28;20201;-61
2021/07/22 07:14:54;;;;;;;12.02;7.57;;;;;;;;;;5055146;28;20570;-61
2021/07/22 07:17:22;;;;;;;11.35;7.50;;;;;;;;;;5059185;28;20231;-60
2021/07/22 07:19:51;;;;;;;9.75;7.88;;;;;;;;;;5072547;28;20199;-61
2021/07/22 07:22:20;;;;;;;16.45;8.60;;;;;;;;;;5055364;28;20227;-60
2021/07/22 07:24:48;;;;;;;14.30;8.48;;;;;;;;;;5054418;28;20237;-60
2021/07/22 07:27:17;;;;;;;11.65;7.53;;;;;;;;;;5054976;28;20205;-61
2021/07/22 07:29:45;;;;;;;11.63;7.60;;;;;;;;;;5054971;28;20218;-60
2021/07/22 07:32:13;;;;;;;11.57;7.82;;;;;;;;;;5055166;28;20292;-61
2021/07/22 07:34:42;;;;;;;13.20;7.57;;;;;;;;;;5055010;28;20576;-63
2021/07/22 07:37:10;;;;;;;10.02;7.78;;;;;;;;;;5060772;28;20348;-60
2021/07/22 07:39:40;;;;;;;13.27;7.28;;;;;;;;;;5060846;28;20209;-62
2021/07/22 07:42:08;;;;;;;10.30;7.55;;;;;;;;;;5050735;28;20216;-62
2021/07/22 07:44:36;;;;;;;10.52;7.25;;;;;;;;;;5051665;28;20215;-61
2021/07/22 07:47:04;;;;;;;10.00;6.95;;;;;;;;;;5051192;28;20201;-61
2021/07/22 07:49:32;;;;;;;12.77;7.22;;;;;;;;;;5051671;28;20304;-62
2021/07/22 07:52:01;;;;;;;11.27;7.47;;;;;;;;;;5051450;28;20233;-61
2021/07/22 07:54:29;;;;;;;9.85;7.15;;;;;;;;;;5051543;28;20198;-62
2021/07/22 07:56:58;;;;;;;9.40;6.97;;;;;;;;;;5051174;28;20711;-61
2021/07/22 07:59:26;;;;;;;12.65;6.65;;;;;;;;;;5051245;28;20205;-61
2021/07/22 08:01:54;;;;;;;10.52;6.82;;;;;;;;;;5066812;28;20200;-61
2021/07/22 08:04:23;;;;;;;11.25;7.80;;;;;;;;;;5053655;28;20256;-60
2021/07/22 08:06:51;;;;;;;11.70;6.68;;;;;;;;;;5071313;28;20295;-64
2021/07/22 08:09:19;;;;;;;8.85;7.20;;;;;;;;;;5071110;28;20201;-63
2021/07/22 08:11:47;;;;;;;11.07;7.13;;;;;;;;;;5071067;28;20207;-64
2021/07/22 08:14:17;;;;;;;12.48;7.07;;;;;;;;;;5071042;28;20209;-66
2021/07/22 08:16:46;;;;;;;11.30;7.15;;;;;;;;;;5071044;28;20216;-62
2021/07/22 08:19:14;;;;;;;8.55;6.65;;;;;;;;;;5070836;28;20624;-61
2021/07/22 08:21:42;;;;;;;8.88;6.85;;;;;;;;;;5071332;28;20211;-65
2021/07/22 08:24:10;;;;;;;10.30;6.65;;;;;;;;;;5070839;28;20200;-64
2021/07/22 08:26:38;;;;;;;8.23;6.53;;;;;;;;;;5072113;28;20209;-64
2021/07/22 08:29:06;;;;;;;10.10;6.38;;;;;;;;;;5076163;28;20201;-64
2021/07/22 08:31:37;;;;;;;8.75;6.20;;;;;;;;;;5076598;28;20203;-60
2021/07/22 08:34:05;;;;;;;7.30;6.22;;;;;;;;;;5070405;28;20630;-61
2021/07/22 08:36:33;;;;;;;10.43;7.10;;;;;;;;;;5069449;28;20227;-60
2021/07/22 08:39:01;;;;;;;8.63;6.30;;;;;;;;;;5070141;28;20211;-67
2021/07/22 08:41:29;;;;;;;11.68;7.25;;;;;;;;;;5070243;28;20204;-67
2021/07/22 08:43:59;;;;;;;9.48;6.88;;;;;;;;;;5070202;28;20270;-64
2021/07/22 08:46:27;;;;;;;10.18;7.28;;;;;;;;;;5070053;28;20652;-64
2021/07/22 08:48:57;;;;;;;10.52;6.65;;;;;;;;;;5069900;28;20564;-60
2021/07/22 08:51:26;;;;;;;9.93;7.18;;;;;;;;;;5069818;28;20726;-60
2021/07/22 08:53:54;;;;;;;9.65;6.68;;;;;;;;;;5069950;28;20201;-60
2021/07/22 08:56:25;;;;;;;11.77;7.25;;;;;;;;;;5070063;28;20204;-60
2021/07/22 08:58:53;;;;;;;10.23;7.43;;;;;;;;;;5069979;28;20618;-61
2021/07/22 09:01:22;;;;;;;11.63;7.22;;;;;;;;;;5069831;28;20660;-67
2021/07/22 09:03:58;;;;;;;13.20;7.07;;;;;;;;;;5069665;28;20267;-64
2021/07/22 09:06:26;;;;;;;9.68;7.18;;;;;;;;;;5070185;28;20181;-64
2021/07/22 09:08:59;;;;;;;11.13;7.40;;;;;;;;;;5064778;28;20201;-64
2021/07/22 09:11:31;;;;;;;8.52;6.80;;;;;;;;;;5049924;28;20267;-64
2021/07/22 09:14:17;;;;;;;9.60;6.55;;;;;;;;;;5049712;28;20197;-63
2021/07/22 09:16:45;;;;;;;10.27;6.40;;;;;;;;;;5049489;28;20251;-62
2021/07/22 09:19:31;;;;;;;8.18;7.05;;;;;;;;;;5049690;28;20197;-63
2021/07/22 09:21:59;;;;;;;10.35;6.28;;;;;;;;;;5049501;28;20271;-66
2021/07/22 09:24:28;;;;;;;11.98;6.53;;;;;;;;;;5048874;28;20215;-65
2021/07/22 09:26:56;;;;;;;6.93;6.20;;;;;;;;;;5049149;28;20252;-64
2021/07/22 09:29:25;;;;;;;8.38;6.80;;;;;;;;;;5049236;28;20201;-64
2021/07/22 09:32:04;;;;;;;9.32;6.88;;;;;;;;;;5049560;28;20197;-66
2021/07/22 09:34:34;;;;;;;8.00;6.50;;;;;;;;;;5049230;28;20276;-66
2021/07/22 09:37:09;;;;;;;9.60;6.65;;;;;;;;;;5049589;28;20255;-63
2021/07/22 09:39:38;;;;;;;7.97;6.78;;;;;;;;;;5049304;28;20287;-64
2021/07/22 09:42:07;;;;;;;10.57;7.47;;;;;;;;;;5049405;28;20293;-63
2021/07/22 09:44:36;;;;;;;9.27;6.60;;;;;;;;;;5049240;28;20212;-64
2021/07/22 09:47:05;;;;;;;10.32;6.95;;;;;;;;;;5049062;28;20687;-64
2021/07/22 09:49:36;;;;;;;9.20;7.03;;;;;;;;;;5049508;28;20203;-64
2021/07/22 09:52:05;;;;;;;10.30;7.50;;;;;;;;;;5049134;28;20233;-62
2021/07/22 09:54:34;;;;;;;8.48;6.85;;;;;;;;;;5048995;28;20208;-63
2021/07/22 09:57:03;;;;;;;8.82;7.93;;;;;;;;;;5049105;28;20209;-64
2021/07/22 09:59:32;;;;;;;10.40;8.23;;;;;;;;;;5049096;28;20295;-65
2021/07/22 10:02:00;;;;;;;9.73;7.80;;;;;;;;;;5049318;28;20228;-65
2021/07/22 10:04:31;;;;;;;10.23;8.05;;;;;;;;;;5049056;28;20205;-64
2021/07/22 10:07:03;;;;;;;10.60;7.95;;;;;;;;;;5049173;28;20614;-63
2021/07/22 10:09:34;;;;;;;11.05;8.32;;;;;;;;;;5060883;28;20571;-66
2021/07/22 10:12:03;;;;;;;7.90;7.10;;;;;;;;;;5069203;28;20185;-66
2021/07/22 10:14:31;;;;;;;9.93;7.97;;;;;;;;;;5069296;28;20217;-65
2021/07/22 10:17:01;;;;;;;9.63;8.13;;;;;;;;;;5069224;28;20208;-62
2021/07/22 10:19:29;;;;;;;10.27;8.95;;;;;;;;;;5068994;28;20282;-64
2021/07/22 10:21:58;;;;;;;9.55;8.55;;;;;;;;;;5068939;28;20201;-63
2021/07/22 10:24:29;;;;;;;10.15;9.05;;;;;;;;;;5069176;28;20200;-63
2021/07/22 10:26:58;;;;;;;10.43;8.00;;;;;;;;;;5068744;28;20181;-63
2021/07/22 10:29:26;;;;;;;9.73;8.50;;;;;;;;;;5068979;28;20205;-62
2021/07/22 10:31:55;;;;;;;9.27;7.88;;;;;;;;;;5068328;28;20698;-63
2021/07/22 10:34:23;;;;;;;10.27;7.85;;;;;;;;;;5068239;28;20299;-63
2021/07/22 10:36:52;;;;;;;9.82;7.75;;;;;;;;;;5068286;28;20563;-64
2021/07/22 10:39:35;;;;;;;9.10;8.10;;;;;;;;;;5068127;28;20221;-63
2021/07/22 10:42:05;;;;;;;9.48;7.88;;;;;;;;;;5067732;28;20205;-63
2021/07/22 10:44:33;;;;;;;12.32;8.52;;;;;;;;;;5068116;28;20188;-64
2021/07/22 10:47:02;;;;;;;14.82;8.95;;;;;;;;;;5067959;28;20209;-62
2021/07/22 10:49:40;;;;;;;9.80;8.38;;;;;;;;;;5068944;28;20197;-63
2021/07/22 10:52:09;;;;;;;10.38;9.20;;;;;;;;;;5067814;28;20232;-63
2021/07/22 10:54:47;;;;;;;11.07;8.80;;;;;;;;;;5066033;28;20209;-64
2021/07/22 10:57:34;;;;;;;10.95;9.13;;;;;;;;;;5068265;28;20585;-63
2021/07/22 11:00:04;;;;;;;14.65;12.88;;;;;;;;;;5070859;28;20232;-63
2021/07/22 11:02:40;;;;;;;10.75;9.10;;;;;;;;;;5071734;28;20640;-62
2021/07/22 11:05:08;;;;;;;10.45;8.98;;;;;;;;;;5072284;28;20220;-63
2021/07/22 11:07:37;;;;;;;11.05;8.88;;;;;;;;;;5071873;28;20205;-63
2021/07/22 11:10:15;;;;;;;10.50;8.85;;;;;;;;;;5056164;28;20380;-63
2021/07/22 11:12:55;;;;;;;10.68;8.95;;;;;;;;;;5051746;28;20205;-63
2021/07/22 11:15:56;;;;;;;9.63;8.27;;;;;;;;;;5051714;28;20186;-63
2021/07/22 11:18:43;;;;;;;10.68;8.65;;;;;;;;;;5051472;28;20304;-63
2021/07/22 11:21:13;;;;;;;9.52;8.52;;;;;;;;;;5051536;28;20244;-66
2021/07/22 11:23:41;;;;;;;10.02;8.10;;;;;;;;;;5051754;28;20185;-67
2021/07/22 11:26:10;;;;;;;9.32;8.30;;;;;;;;;;5051838;28;20731;-67
2021/07/22 11:28:38;;;;;;;9.98;8.32;;;;;;;;;;5051476;28;20300;-68
2021/07/22 11:31:07;;;;;;;9.63;8.63;;;;;;;;;;5051659;28;20661;-67
2021/07/22 11:33:36;;;;;;;9.70;8.70;;;;;;;;;;5069319;28;20243;-68
2021/07/22 11:36:05;;;;;;;10.10;8.38;;;;;;;;;;5071660;28;20254;-68
2021/07/22 11:38:36;;;;;;;10.07;8.73;;;;;;;;;;5071144;28;20274;-68
2021/07/22 11:41:11;;;;;;;10.82;8.60;;;;;;;;;;5071770;28;20189;-66
2021/07/22 11:43:40;;;;;;;10.15;9.15;;;;;;;;;;5071718;28;20216;-69
2021/07/22 11:46:09;;;;;;;9.32;8.25;;;;;;;;;;5071501;28;20299;-66
2021/07/22 11:48:38;;;;;;;9.75;8.75;;;;;;;;;;5066199;28;20688;-64
2021/07/22 11:51:07;;;;;;;12.00;9.73;;;;;;;;;;5051103;28;20673;-63
2021/07/22 11:53:38;;;;;;;9.88;8.88;;;;;;;;;;5051408;28;20182;-65
2021/07/22 11:56:14;;;;;;;9.70;8.27;;;26.20;99.90;;;;;;5051333;28;20209;-64
2021/07/22 11:58:47;;;;;;;11.38;8.88;;;26.20;99.90;;;;;;5051035;28;20723;-63
2021/07/22 12:01:15;;;;;;;9.63;8.63;;;26.20;99.90;;;;;;5051184;28;20284;-65
2021/07/22 12:03:47;;;;;;;11.45;8.63;;;26.30;99.90;;;;;;5051167;28;20948;-65
2021/07/22 12:06:15;;;;;;;11.70;8.93;;;26.30;99.90;;;;;;5051320;28;20185;-63
2021/07/22 12:08:44;;;;;;;10.77;8.90;;;26.40;99.90;;;;;;5053271;28;20279;-63
2021/07/22 12:11:12;;;;;;;11.00;9.45;;;26.40;99.90;;;;;;5051023;28;20197;-63
2021/07/22 12:13:47;;;;;;;10.82;9.27;;;;;;;;;;5050861;28;20225;-64
2021/07/22 12:16:15;;;;;;;9.73;8.73;;;;;;;;;;5050889;28;20193;-64
2021/07/22 12:18:43;;;;;;;11.40;9.50;;;;;;;;;;5050919;28;20385;-66
2021/07/22 12:21:21;;;;;;;10.13;9.13;;;;;;;;;;5050281;28;20227;-64
2021/07/22 12:23:51;;;;;;;11.65;9.82;;;;;;;;;;5050788;28;20318;-63
2021/07/22 12:26:19;;;;;;;11.82;9.88;;;;;;;;;;5050410;28;20288;-64
2021/07/22 12:28:58;;;;;;;10.77;9.30;;;;;;;;;;5050152;28;20199;-63
2021/07/22 12:31:27;;;;;;;10.18;9.13;;;26.50;99.90;;;;;;5050295;28;20208;-63
2021/07/22 12:33:59;;;;;;;12.55;11.30;;;26.70;99.90;;;;;;5049729;28;20215;-63
2021/07/22 12:36:30;;;;;;;11.32;10.07;;;27.00;99.90;;;;;;5049463;28;20230;-63
2021/07/22 12:39:19;;;;;;;10.38;8.85;;;27.00;99.90;;;;;;5053997;28;20232;-62
2021/07/22 12:41:48;;;;;;;10.70;9.60;;;27.30;99.90;;;;;;5070014;28;20181;-63
2021/07/22 12:44:44;;;;;;;11.60;10.40;;;27.20;99.90;;;;;;5069535;28;20212;-63
2021/07/22 12:47:32;;;;;;;10.80;9.70;;;27.10;99.90;;;;;;5069941;28;20276;-64
2021/07/22 12:50:01;;;;;;;10.90;9.80;;;26.90;99.90;;;;;;5069841;28;20205;-62
2021/07/22 12:52:30;;;;;;;11.43;10.23;;;26.70;99.90;;;;;;5069520;28;20732;-63
2021/07/22 12:55:00;;;;;;;11.00;9.90;;;26.60;99.90;;;;;;5070119;28;20204;-63
2021/07/22 12:57:38;;;;;;;11.27;9.98;;;26.70;99.90;;;;;;5069312;28;20637;-62
2021/07/22 13:00:08;;;;;;;11.93;10.35;;;;;;;;;;5069452;28;20211;-64
2021/07/22 13:02:37;;;;;;;14.07;11.02;;;;;;;;;;5069635;28;20207;-63
2021/07/22 13:05:07;;;;;;;13.02;10.95;;;;;;;;;;5069372;28;20223;-62
2021/07/22 13:07:35;;;;;;;13.75;11.05;;;;;;;;;;5069066;28;20284;-64
2021/07/22 13:10:05;;;;;;;12.60;11.27;;;;;;;;;;5055611;28;20197;-63
2021/07/22 13:12:34;;;;;;;13.20;11.60;;;;;;;;;;5049270;28;20202;-63
2021/07/22 13:15:02;;;;;;;12.30;11.10;;;;;;;;;;5049384;28;20546;-63
2021/07/22 13:17:30;;;;;;;11.98;10.82;;;;;;;;;;5049200;28;20213;-64
2021/07/22 13:19:58;;;;;;;12.48;11.18;;;;;;;;;;5049375;28;20217;-63
2021/07/22 13:22:27;;;;;;;11.95;10.75;;;;;;;;;;5048698;28;20197;-65
2021/07/22 13:24:55;;;;;;;13.95;12.25;;;;;;;;;;5050681;28;20211;-63
2021/07/22 13:27:24;;;;;;;13.32;11.98;;;;;;;;;;5054866;28;20203;-66
2021/07/22 13:29:52;;;;;;;14.02;12.50;;;;;;;;;;5054184;28;20348;-62
2021/07/22 13:32:21;;;;;;;13.05;11.68;;;;;;;;;;5050674;28;20229;-63
2021/07/22 13:34:49;;;;;;;13.18;11.88;;;;;;;;;;5049049;28;20229;-63
2021/07/22 13:37:17;;;;;;;12.85;11.63;;;;;;;;;;5048682;28;20202;-62
2021/07/22 13:39:45;;;;;;;13.45;12.07;;;;;;;;;;5048604;28;20629;-62
2021/07/22 13:42:13;;;;;;;13.10;11.70;;;;;;;;;;5048558;28;20223;-61
2021/07/22 13:44:43;;;;;;;13.85;12.55;;;;;;;;;;5048556;28;20727;-64
2021/07/22 13:47:12;;;;;;;14.02;12.52;;;;;;;;;;5048599;28;20200;-63
2021/07/22 13:49:40;;;;;;;13.07;11.75;;;;;;;;;;5048561;28;20867;-63
2021/07/22 13:52:08;;;;;;;13.70;12.30;;;;;;;;;;5048134;28;20779;-63
2021/07/22 13:54:36;;;;;;;13.60;12.20;;;;;;;;;;5048183;28;20729;-63
2021/07/22 13:57:04;;;;;;;14.40;12.90;;;;;;;;;;5048116;28;20232;-64
2021/07/22 13:59:33;;;;;;;15.60;14.00;;;;;;;;;;5048533;28;20221;-64
2021/07/22 14:02:18;;;;;;;15.15;13.65;;;;;;;;;;5048817;28;20188;-63
2021/07/22 14:04:47;;;;;;;14.55;13.05;;;;;;;;;;5048508;28;20189;-63
2021/07/22 14:07:15;;;;;;;14.10;12.70;;;;;;;;;;5048873;28;20225;-63
2021/07/22 14:09:43;;;;;;;13.55;12.25;;;;;;;;;;5062280;28;20243;-64
2021/07/22 14:12:11;;;;;;;13.70;12.30;;;;;;;;;;5066005;28;20209;-64
2021/07/22 14:14:40;;;;;;;13.18;11.52;;;;;;;;;;5064986;28;20656;-65
2021/07/22 14:17:08;;;;;;;14.07;12.68;;;;;;;;;;5069296;28;20207;-64
2021/07/22 14:19:37;;;;;;;14.18;12.57;;;;;;;;;;5069225;28;20222;-64
2021/07/22 14:22:06;;;;;;;13.18;11.82;;;;;;;;;;5069226;28;20203;-64
2021/07/22 14:24:34;;;;;;;14.95;13.48;;;;;;;;;;5068712;28;20205;-64
2021/07/22 14:27:03;;;;;;;15.30;13.05;;;;;;;;;;5068971;28;20204;-65
2021/07/22 14:29:31;;;;;;;15.20;13.70;;;;;;;;;;5069036;28;20253;-66
2021/07/22 14:32:01;;;;;;;14.18;12.68;;;;;;;;;;5069131;28;20200;-66
2021/07/22 14:34:29;;;;;;;16.67;12.98;;;;;;;;;;5070831;28;20200;-66
2021/07/22 14:36:59;;;;;;;15.93;14.27;;;;;;;;;;5072705;28;20307;-63